sensor_id;sensor_type;location;lat;lon;timestamp;P1;durP1;ratioP1;P2;durP2;ratioP2
75793;SDS011;64418;47.536;19.074;2023-03-05T00:01:53;13.98;;;7.90;;
75793;SDS011;64418;47.536;19.074;2023-03-05T00:04:19;15.75;;;7.60;;
75793;SDS011;64418;47.536;19.074;2023-03-05T00:06:44;14.77;;;8.37;;
75793;SDS011;64418;47.536;19.074;2023-03-05T00:09:10;12.98;;;8.25;;
75793;SDS011;64418;47.536;19.074;2023-03-05T00:11:38;13.40;;;6.70;;
75793;SDS011;64418;47.536;19.074;2023-03-05T00:14:04;11.85;;;6.78;;
75793;SDS011;64418;47.536;19.074;2023-03-05T00:16:30;17.77;;;7.30;;
75793;SDS011;64418;47.536;19.074;2023-03-05T00:18:57;14.80;;;7.28;;
75793;SDS011;64418;47.536;19.074;2023-03-05T00:21:25;12.83;;;6.83;;
75793;SDS011;64418;47.536;19.074;2023-03-05T00:23:52;15.40;;;6.75;;
75793;SDS011;64418;47.536;19.074;2023-03-05T00:26:19;16.50;;;6.22;;
75793;SDS011;64418;47.536;19.074;2023-03-05T00:28:49;12.07;;;6.72;;
75793;SDS011;64418;47.536;19.074;2023-03-05T00:31:14;12.35;;;6.72;;
75793;SDS011;64418;47.536;19.074;2023-03-05T00:33:41;14.83;;;7.63;;
75793;SDS011;64418;47.536;19.074;2023-03-05T00:36:07;17.73;;;7.70;;
75793;SDS011;64418;47.536;19.074;2023-03-05T00:38:33;15.95;;;7.20;;
75793;SDS011;64418;47.536;19.074;2023-03-05T00:40:59;13.93;;;6.78;;
75793;SDS011;64418;47.536;19.074;2023-03-05T00:43:25;10.77;;;5.07;;
75793;SDS011;64418;47.536;19.074;2023-03-05T00:45:52;10.35;;;5.95;;
75793;SDS011;64418;47.536;19.074;2023-03-05T00:48:17;13.57;;;6.90;;
75793;SDS011;64418;47.536;19.074;2023-03-05T00:50:43;13.93;;;7.65;;
75793;SDS011;64418;47.536;19.074;2023-03-05T00:53:09;16.93;;;7.27;;
75793;SDS011;64418;47.536;19.074;2023-03-05T00:55:34;13.25;;;7.30;;
75793;SDS011;64418;47.536;19.074;2023-03-05T00:58:00;17.98;;;7.55;;
75793;SDS011;64418;47.536;19.074;2023-03-05T01:00:26;12.80;;;6.83;;
75793;SDS011;64418;47.536;19.074;2023-03-05T01:02:53;10.98;;;5.62;;
75793;SDS011;64418;47.536;19.074;2023-03-05T01:05:20;13.62;;;6.78;;
75793;SDS011;64418;47.536;19.074;2023-03-05T01:07:45;10.93;;;5.83;;
75793;SDS011;64418;47.536;19.074;2023-03-05T01:10:11;14.27;;;6.60;;
75793;SDS011;64418;47.536;19.074;2023-03-05T01:12:37;12.07;;;5.30;;
75793;SDS011;64418;47.536;19.074;2023-03-05T01:15:04;9.30;;;5.30;;
75793;SDS011;64418;47.536;19.074;2023-03-05T01:17:30;13.33;;;7.43;;
75793;SDS011;64418;47.536;19.074;2023-03-05T01:19:58;12.43;;;6.40;;
75793;SDS011;64418;47.536;19.074;2023-03-05T01:22:23;13.88;;;7.43;;
75793;SDS011;64418;47.536;19.074;2023-03-05T01:24:49;14.18;;;8.18;;
75793;SDS011;64418;47.536;19.074;2023-03-05T01:27:15;12.37;;;4.87;;
75793;SDS011;64418;47.536;19.074;2023-03-05T01:29:41;12.52;;;6.53;;
75793;SDS011;64418;47.536;19.074;2023-03-05T01:32:06;14.30;;;7.25;;
75793;SDS011;64418;47.536;19.074;2023-03-05T01:34:32;10.23;;;5.40;;
75793;SDS011;64418;47.536;19.074;2023-03-05T01:37:01;14.98;;;6.97;;
75793;SDS011;64418;47.536;19.074;2023-03-05T01:39:27;11.63;;;5.97;;
75793;SDS011;64418;47.536;19.074;2023-03-05T01:41:52;11.00;;;5.60;;
75793;SDS011;64418;47.536;19.074;2023-03-05T01:44:22;11.00;;;5.57;;
75793;SDS011;64418;47.536;19.074;2023-03-05T01:46:49;14.00;;;6.45;;
75793;SDS011;64418;47.536;19.074;2023-03-05T01:49:16;12.20;;;6.80;;
75793;SDS011;64418;47.536;19.074;2023-03-05T01:51:48;14.40;;;6.78;;
75793;SDS011;64418;47.536;19.074;2023-03-05T01:54:20;13.65;;;7.25;;
75793;SDS011;64418;47.536;19.074;2023-03-05T01:56:49;10.82;;;5.62;;
75793;SDS011;64418;47.536;19.074;2023-03-05T01:59:17;14.05;;;5.68;;
75793;SDS011;64418;47.536;19.074;2023-03-05T02:01:47;13.27;;;7.20;;
75793;SDS011;64418;47.536;19.074;2023-03-05T02:04:17;13.60;;;6.30;;
75793;SDS011;64418;47.536;19.074;2023-03-05T02:06:43;12.75;;;5.55;;
75793;SDS011;64418;47.536;19.074;2023-03-05T02:09:09;14.57;;;6.85;;
75793;SDS011;64418;47.536;19.074;2023-03-05T02:11:37;11.88;;;7.03;;
75793;SDS011;64418;47.536;19.074;2023-03-05T02:14:04;15.77;;;6.80;;
75793;SDS011;64418;47.536;19.074;2023-03-05T02:16:30;11.23;;;5.35;;
75793;SDS011;64418;47.536;19.074;2023-03-05T02:18:57;11.90;;;7.00;;
75793;SDS011;64418;47.536;19.074;2023-03-05T02:21:35;14.20;;;6.93;;
75793;SDS011;64418;47.536;19.074;2023-03-05T02:24:02;12.52;;;6.25;;
75793;SDS011;64418;47.536;19.074;2023-03-05T02:26:28;10.65;;;5.72;;
75793;SDS011;64418;47.536;19.074;2023-03-05T02:28:54;13.95;;;6.70;;
75793;SDS011;64418;47.536;19.074;2023-03-05T02:31:23;10.65;;;5.85;;
75793;SDS011;64418;47.536;19.074;2023-03-05T02:33:50;17.00;;;7.30;;
75793;SDS011;64418;47.536;19.074;2023-03-05T02:36:17;14.30;;;7.72;;
75793;SDS011;64418;47.536;19.074;2023-03-05T02:38:46;13.60;;;7.43;;
75793;SDS011;64418;47.536;19.074;2023-03-05T02:41:13;9.15;;;5.57;;
75793;SDS011;64418;47.536;19.074;2023-03-05T02:43:39;9.02;;;4.90;;
75793;SDS011;64418;47.536;19.074;2023-03-05T02:46:05;10.40;;;5.07;;
75793;SDS011;64418;47.536;19.074;2023-03-05T02:48:31;9.98;;;5.32;;
75793;SDS011;64418;47.536;19.074;2023-03-05T02:50:57;12.65;;;5.62;;
75793;SDS011;64418;47.536;19.074;2023-03-05T02:53:25;10.75;;;5.53;;
75793;SDS011;64418;47.536;19.074;2023-03-05T02:55:52;12.67;;;6.40;;
75793;SDS011;64418;47.536;19.074;2023-03-05T02:58:18;13.90;;;6.70;;
75793;SDS011;64418;47.536;19.074;2023-03-05T03:00:43;11.52;;;5.75;;
75793;SDS011;64418;47.536;19.074;2023-03-05T03:03:09;11.63;;;5.83;;
75793;SDS011;64418;47.536;19.074;2023-03-05T03:05:35;10.82;;;5.25;;
75793;SDS011;64418;47.536;19.074;2023-03-05T03:08:01;16.73;;;6.85;;
75793;SDS011;64418;47.536;19.074;2023-03-05T03:10:26;11.10;;;5.57;;
75793;SDS011;64418;47.536;19.074;2023-03-05T03:12:53;11.43;;;6.18;;
75793;SDS011;64418;47.536;19.074;2023-03-05T03:15:19;11.20;;;5.75;;
75793;SDS011;64418;47.536;19.074;2023-03-05T03:17:45;11.73;;;5.93;;
75793;SDS011;64418;47.536;19.074;2023-03-05T03:20:12;10.73;;;5.57;;
75793;SDS011;64418;47.536;19.074;2023-03-05T03:22:40;9.48;;;5.45;;
75793;SDS011;64418;47.536;19.074;2023-03-05T03:25:07;11.23;;;4.75;;
75793;SDS011;64418;47.536;19.074;2023-03-05T03:27:34;9.90;;;5.30;;
75793;SDS011;64418;47.536;19.074;2023-03-05T03:30:01;9.13;;;4.67;;
75793;SDS011;64418;47.536;19.074;2023-03-05T03:32:27;10.10;;;5.07;;
75793;SDS011;64418;47.536;19.074;2023-03-05T03:34:52;9.70;;;5.73;;
75793;SDS011;64418;47.536;19.074;2023-03-05T03:37:18;11.77;;;5.78;;
75793;SDS011;64418;47.536;19.074;2023-03-05T03:39:44;9.13;;;5.00;;
75793;SDS011;64418;47.536;19.074;2023-03-05T03:42:10;10.43;;;4.53;;
75793;SDS011;64418;47.536;19.074;2023-03-05T03:44:36;14.65;;;5.32;;
75793;SDS011;64418;47.536;19.074;2023-03-05T03:47:03;9.68;;;5.37;;
75793;SDS011;64418;47.536;19.074;2023-03-05T03:49:29;10.43;;;5.43;;
75793;SDS011;64418;47.536;19.074;2023-03-05T03:51:55;7.93;;;4.50;;
75793;SDS011;64418;47.536;19.074;2023-03-05T03:54:21;8.48;;;4.93;;
75793;SDS011;64418;47.536;19.074;2023-03-05T03:56:49;10.77;;;5.43;;
75793;SDS011;64418;47.536;19.074;2023-03-05T03:59:15;11.32;;;6.12;;
75793;SDS011;64418;47.536;19.074;2023-03-05T04:01:41;11.02;;;6.12;;
75793;SDS011;64418;47.536;19.074;2023-03-05T04:04:09;10.13;;;4.35;;
75793;SDS011;64418;47.536;19.074;2023-03-05T04:06:35;8.93;;;4.40;;
75793;SDS011;64418;47.536;19.074;2023-03-05T04:09:01;11.48;;;5.57;;
75793;SDS011;64418;47.536;19.074;2023-03-05T04:11:27;12.82;;;5.62;;
75793;SDS011;64418;47.536;19.074;2023-03-05T04:13:53;9.75;;;4.53;;
75793;SDS011;64418;47.536;19.074;2023-03-05T04:16:19;8.63;;;4.63;;
75793;SDS011;64418;47.536;19.074;2023-03-05T04:18:47;12.25;;;6.87;;
75793;SDS011;64418;47.536;19.074;2023-03-05T04:21:16;11.38;;;5.70;;
75793;SDS011;64418;47.536;19.074;2023-03-05T04:23:42;10.05;;;4.90;;
75793;SDS011;64418;47.536;19.074;2023-03-05T04:26:08;14.47;;;5.70;;
75793;SDS011;64418;47.536;19.074;2023-03-05T04:28:34;10.90;;;5.10;;
75793;SDS011;64418;47.536;19.074;2023-03-05T04:31:00;13.23;;;5.80;;
75793;SDS011;64418;47.536;19.074;2023-03-05T04:33:25;10.77;;;5.87;;
75793;SDS011;64418;47.536;19.074;2023-03-05T04:35:52;11.18;;;5.43;;
75793;SDS011;64418;47.536;19.074;2023-03-05T04:38:19;12.43;;;5.50;;
75793;SDS011;64418;47.536;19.074;2023-03-05T04:40:45;10.45;;;5.28;;
75793;SDS011;64418;47.536;19.074;2023-03-05T04:43:11;11.80;;;6.60;;
75793;SDS011;64418;47.536;19.074;2023-03-05T04:45:38;8.95;;;4.80;;
75793;SDS011;64418;47.536;19.074;2023-03-05T04:48:04;10.15;;;5.80;;
75793;SDS011;64418;47.536;19.074;2023-03-05T04:50:30;13.75;;;6.28;;
75793;SDS011;64418;47.536;19.074;2023-03-05T04:52:56;11.67;;;5.50;;
75793;SDS011;64418;47.536;19.074;2023-03-05T04:55:23;14.00;;;5.57;;
75793;SDS011;64418;47.536;19.074;2023-03-05T04:57:49;12.55;;;5.87;;
75793;SDS011;64418;47.536;19.074;2023-03-05T05:00:15;12.47;;;6.00;;
75793;SDS011;64418;47.536;19.074;2023-03-05T05:02:41;12.68;;;5.65;;
75793;SDS011;64418;47.536;19.074;2023-03-05T05:05:08;11.12;;;5.40;;
75793;SDS011;64418;47.536;19.074;2023-03-05T05:07:36;13.65;;;6.35;;
75793;SDS011;64418;47.536;19.074;2023-03-05T05:10:02;10.20;;;5.50;;
75793;SDS011;64418;47.536;19.074;2023-03-05T05:12:30;14.65;;;5.47;;
75793;SDS011;64418;47.536;19.074;2023-03-05T05:14:55;14.23;;;6.97;;
75793;SDS011;64418;47.536;19.074;2023-03-05T05:17:21;14.80;;;6.90;;
75793;SDS011;64418;47.536;19.074;2023-03-05T05:19:47;11.18;;;5.55;;
75793;SDS011;64418;47.536;19.074;2023-03-05T05:22:13;13.10;;;5.60;;
75793;SDS011;64418;47.536;19.074;2023-03-05T05:24:39;15.98;;;5.97;;
75793;SDS011;64418;47.536;19.074;2023-03-05T05:27:05;15.88;;;6.62;;
75793;SDS011;64418;47.536;19.074;2023-03-05T05:29:32;13.02;;;5.97;;
75793;SDS011;64418;47.536;19.074;2023-03-05T05:31:58;13.27;;;6.23;;
75793;SDS011;64418;47.536;19.074;2023-03-05T05:34:24;13.93;;;6.25;;
75793;SDS011;64418;47.536;19.074;2023-03-05T05:36:51;12.18;;;5.05;;
75793;SDS011;64418;47.536;19.074;2023-03-05T05:39:17;13.23;;;5.68;;
75793;SDS011;64418;47.536;19.074;2023-03-05T05:41:43;12.50;;;5.22;;
75793;SDS011;64418;47.536;19.074;2023-03-05T05:44:09;13.50;;;6.23;;
75793;SDS011;64418;47.536;19.074;2023-03-05T05:46:36;12.37;;;6.20;;
75793;SDS011;64418;47.536;19.074;2023-03-05T05:49:02;9.13;;;4.75;;
75793;SDS011;64418;47.536;19.074;2023-03-05T05:51:28;15.93;;;5.97;;
75793;SDS011;64418;47.536;19.074;2023-03-05T05:53:53;10.10;;;5.20;;
75793;SDS011;64418;47.536;19.074;2023-03-05T05:56:19;13.02;;;6.10;;
75793;SDS011;64418;47.536;19.074;2023-03-05T05:58:46;13.83;;;6.80;;
75793;SDS011;64418;47.536;19.074;2023-03-05T06:01:13;14.70;;;6.82;;
75793;SDS011;64418;47.536;19.074;2023-03-05T06:03:42;10.10;;;5.05;;
75793;SDS011;64418;47.536;19.074;2023-03-05T06:06:09;12.57;;;6.50;;
75793;SDS011;64418;47.536;19.074;2023-03-05T06:08:35;14.47;;;6.67;;
75793;SDS011;64418;47.536;19.074;2023-03-05T06:11:01;13.95;;;6.57;;
75793;SDS011;64418;47.536;19.074;2023-03-05T06:13:26;12.43;;;6.23;;
75793;SDS011;64418;47.536;19.074;2023-03-05T06:15:55;14.68;;;6.97;;
75793;SDS011;64418;47.536;19.074;2023-03-05T06:18:21;15.05;;;7.03;;
75793;SDS011;64418;47.536;19.074;2023-03-05T06:20:53;14.17;;;6.80;;
75793;SDS011;64418;47.536;19.074;2023-03-05T06:23:20;15.88;;;6.10;;
75793;SDS011;64418;47.536;19.074;2023-03-05T06:25:45;15.87;;;7.73;;
75793;SDS011;64418;47.536;19.074;2023-03-05T06:28:11;14.40;;;6.57;;
75793;SDS011;64418;47.536;19.074;2023-03-05T06:30:40;15.10;;;7.10;;
75793;SDS011;64418;47.536;19.074;2023-03-05T06:33:11;13.73;;;7.30;;
75793;SDS011;64418;47.536;19.074;2023-03-05T06:35:37;15.45;;;7.37;;
75793;SDS011;64418;47.536;19.074;2023-03-05T06:38:05;15.07;;;6.72;;
75793;SDS011;64418;47.536;19.074;2023-03-05T06:40:31;12.88;;;6.05;;
75793;SDS011;64418;47.536;19.074;2023-03-05T06:42:57;11.43;;;6.30;;
75793;SDS011;64418;47.536;19.074;2023-03-05T06:45:23;15.23;;;7.45;;
75793;SDS011;64418;47.536;19.074;2023-03-05T06:47:49;13.43;;;7.33;;
75793;SDS011;64418;47.536;19.074;2023-03-05T06:50:15;14.95;;;6.93;;
75793;SDS011;64418;47.536;19.074;2023-03-05T06:52:41;12.75;;;6.32;;
75793;SDS011;64418;47.536;19.074;2023-03-05T06:55:08;16.37;;;7.30;;
75793;SDS011;64418;47.536;19.074;2023-03-05T06:57:35;14.13;;;7.50;;
75793;SDS011;64418;47.536;19.074;2023-03-05T07:00:01;15.30;;;7.28;;
75793;SDS011;64418;47.536;19.074;2023-03-05T07:02:28;14.93;;;7.32;;
75793;SDS011;64418;47.536;19.074;2023-03-05T07:04:56;16.17;;;7.28;;
75793;SDS011;64418;47.536;19.074;2023-03-05T07:07:22;14.90;;;6.90;;
75793;SDS011;64418;47.536;19.074;2023-03-05T07:09:47;14.60;;;7.07;;
75793;SDS011;64418;47.536;19.074;2023-03-05T07:12:14;16.57;;;7.43;;
75793;SDS011;64418;47.536;19.074;2023-03-05T07:14:40;14.65;;;7.18;;
75793;SDS011;64418;47.536;19.074;2023-03-05T07:17:06;16.60;;;7.37;;
75793;SDS011;64418;47.536;19.074;2023-03-05T07:19:32;15.63;;;7.47;;
75793;SDS011;64418;47.536;19.074;2023-03-05T07:21:58;16.92;;;8.32;;
75793;SDS011;64418;47.536;19.074;2023-03-05T07:24:24;10.13;;;6.05;;
75793;SDS011;64418;47.536;19.074;2023-03-05T07:26:50;17.07;;;7.83;;
75793;SDS011;64418;47.536;19.074;2023-03-05T07:29:17;15.27;;;8.18;;
75793;SDS011;64418;47.536;19.074;2023-03-05T07:31:43;18.12;;;8.10;;
75793;SDS011;64418;47.536;19.074;2023-03-05T07:34:08;13.73;;;6.57;;
75793;SDS011;64418;47.536;19.074;2023-03-05T07:36:34;14.25;;;7.50;;
75793;SDS011;64418;47.536;19.074;2023-03-05T07:39:00;16.10;;;8.57;;
75793;SDS011;64418;47.536;19.074;2023-03-05T07:41:26;14.68;;;7.15;;
75793;SDS011;64418;47.536;19.074;2023-03-05T07:43:53;16.17;;;7.10;;
75793;SDS011;64418;47.536;19.074;2023-03-05T07:46:28;13.60;;;7.28;;
75793;SDS011;64418;47.536;19.074;2023-03-05T07:48:56;11.90;;;5.93;;
75793;SDS011;64418;47.536;19.074;2023-03-05T07:51:23;14.43;;;7.13;;
75793;SDS011;64418;47.536;19.074;2023-03-05T07:53:51;20.80;;;8.40;;
75793;SDS011;64418;47.536;19.074;2023-03-05T07:56:21;14.00;;;7.37;;
75793;SDS011;64418;47.536;19.074;2023-03-05T07:58:48;14.48;;;6.32;;
75793;SDS011;64418;47.536;19.074;2023-03-05T08:01:14;15.15;;;7.50;;
75793;SDS011;64418;47.536;19.074;2023-03-05T08:03:41;14.97;;;7.47;;
75793;SDS011;64418;47.536;19.074;2023-03-05T08:06:09;15.45;;;7.18;;
75793;SDS011;64418;47.536;19.074;2023-03-05T08:08:36;21.05;;;8.98;;
75793;SDS011;64418;47.536;19.074;2023-03-05T08:11:03;14.25;;;7.07;;
75793;SDS011;64418;47.536;19.074;2023-03-05T08:13:29;19.05;;;7.82;;
75793;SDS011;64418;47.536;19.074;2023-03-05T08:15:55;13.17;;;5.80;;
75793;SDS011;64418;47.536;19.074;2023-03-05T08:18:21;16.75;;;8.85;;
75793;SDS011;64418;47.536;19.074;2023-03-05T08:20:48;15.20;;;6.13;;
75793;SDS011;64418;47.536;19.074;2023-03-05T08:23:13;16.12;;;7.43;;
75793;SDS011;64418;47.536;19.074;2023-03-05T08:25:39;13.57;;;7.00;;
75793;SDS011;64418;47.536;19.074;2023-03-05T08:28:05;12.17;;;6.70;;
75793;SDS011;64418;47.536;19.074;2023-03-05T08:30:31;14.95;;;7.68;;
75793;SDS011;64418;47.536;19.074;2023-03-05T08:32:57;15.77;;;7.65;;
75793;SDS011;64418;47.536;19.074;2023-03-05T08:35:22;16.90;;;7.73;;
75793;SDS011;64418;47.536;19.074;2023-03-05T08:37:49;16.23;;;7.82;;
75793;SDS011;64418;47.536;19.074;2023-03-05T08:40:15;14.35;;;7.95;;
75793;SDS011;64418;47.536;19.074;2023-03-05T08:42:41;16.17;;;7.23;;
75793;SDS011;64418;47.536;19.074;2023-03-05T08:45:08;15.80;;;6.70;;
75793;SDS011;64418;47.536;19.074;2023-03-05T08:47:34;13.88;;;7.07;;
75793;SDS011;64418;47.536;19.074;2023-03-05T08:50:00;15.07;;;6.60;;
75793;SDS011;64418;47.536;19.074;2023-03-05T08:52:26;14.73;;;7.20;;
75793;SDS011;64418;47.536;19.074;2023-03-05T08:54:53;15.10;;;7.95;;
75793;SDS011;64418;47.536;19.074;2023-03-05T08:57:19;14.30;;;7.20;;
75793;SDS011;64418;47.536;19.074;2023-03-05T08:59:45;13.73;;;6.77;;
75793;SDS011;64418;47.536;19.074;2023-03-05T09:02:11;16.95;;;7.82;;
75793;SDS011;64418;47.536;19.074;2023-03-05T09:04:37;16.50;;;7.47;;
75793;SDS011;64418;47.536;19.074;2023-03-05T09:07:04;14.57;;;8.13;;
75793;SDS011;64418;47.536;19.074;2023-03-05T09:09:30;19.90;;;8.25;;
75793;SDS011;64418;47.536;19.074;2023-03-05T09:11:58;13.93;;;7.53;;
75793;SDS011;64418;47.536;19.074;2023-03-05T09:14:23;14.13;;;7.53;;
75793;SDS011;64418;47.536;19.074;2023-03-05T09:16:49;12.47;;;6.67;;
75793;SDS011;64418;47.536;19.074;2023-03-05T09:19:15;17.17;;;6.68;;
75793;SDS011;64418;47.536;19.074;2023-03-05T09:21:44;14.90;;;7.57;;
75793;SDS011;64418;47.536;19.074;2023-03-05T09:24:10;15.02;;;7.47;;
75793;SDS011;64418;47.536;19.074;2023-03-05T09:26:37;14.73;;;6.78;;
75793;SDS011;64418;47.536;19.074;2023-03-05T09:29:04;16.57;;;8.23;;
75793;SDS011;64418;47.536;19.074;2023-03-05T09:31:30;13.62;;;6.82;;
75793;SDS011;64418;47.536;19.074;2023-03-05T09:33:56;16.37;;;7.80;;
75793;SDS011;64418;47.536;19.074;2023-03-05T09:36:23;18.03;;;6.97;;
75793;SDS011;64418;47.536;19.074;2023-03-05T09:38:50;16.58;;;8.40;;
75793;SDS011;64418;47.536;19.074;2023-03-05T09:41:18;15.38;;;8.02;;
75793;SDS011;64418;47.536;19.074;2023-03-05T09:43:53;13.77;;;7.37;;
75793;SDS011;64418;47.536;19.074;2023-03-05T09:46:29;11.97;;;6.73;;
75793;SDS011;64418;47.536;19.074;2023-03-05T09:49:09;13.90;;;7.65;;
75793;SDS011;64418;47.536;19.074;2023-03-05T09:51:40;17.02;;;7.62;;
75793;SDS011;64418;47.536;19.074;2023-03-05T09:54:09;11.23;;;6.53;;
75793;SDS011;64418;47.536;19.074;2023-03-05T09:56:39;11.68;;;6.82;;
75793;SDS011;64418;47.536;19.074;2023-03-05T09:59:12;13.73;;;6.53;;
75793;SDS011;64418;47.536;19.074;2023-03-05T10:01:48;11.48;;;6.68;;
75793;SDS011;64418;47.536;19.074;2023-03-05T10:04:17;13.68;;;7.50;;
75793;SDS011;64418;47.536;19.074;2023-03-05T10:06:50;12.27;;;6.28;;
75793;SDS011;64418;47.536;19.074;2023-03-05T10:09:22;13.38;;;6.65;;
75793;SDS011;64418;47.536;19.074;2023-03-05T10:12:02;9.20;;;4.83;;
75793;SDS011;64418;47.536;19.074;2023-03-05T10:14:33;12.57;;;7.12;;
75793;SDS011;64418;47.536;19.074;2023-03-05T10:17:07;14.73;;;7.60;;
75793;SDS011;64418;47.536;19.074;2023-03-05T10:19:53;12.73;;;7.07;;
75793;SDS011;64418;47.536;19.074;2023-03-05T10:22:32;11.18;;;6.20;;
75793;SDS011;64418;47.536;19.074;2023-03-05T10:25:09;11.30;;;6.17;;
75793;SDS011;64418;47.536;19.074;2023-03-05T10:27:46;8.70;;;4.62;;
75793;SDS011;64418;47.536;19.074;2023-03-05T10:30:21;13.13;;;6.00;;
75793;SDS011;64418;47.536;19.074;2023-03-05T10:32:57;14.43;;;6.75;;
75793;SDS011;64418;47.536;19.074;2023-03-05T10:35:39;12.48;;;6.68;;
75793;SDS011;64418;47.536;19.074;2023-03-05T10:41:10;11.07;;;6.18;;
75793;SDS011;64418;47.536;19.074;2023-03-05T10:43:47;8.13;;;4.47;;
75793;SDS011;64418;47.536;19.074;2023-03-05T10:46:17;10.38;;;4.82;;
75793;SDS011;64418;47.536;19.074;2023-03-05T10:48:49;7.50;;;3.95;;
75793;SDS011;64418;47.536;19.074;2023-03-05T10:51:18;9.83;;;5.60;;
75793;SDS011;64418;47.536;19.074;2023-03-05T10:53:49;10.38;;;5.43;;
75793;SDS011;64418;47.536;19.074;2023-03-05T10:56:20;12.10;;;6.18;;
75793;SDS011;64418;47.536;19.074;2023-03-05T10:58:48;10.80;;;5.95;;
75793;SDS011;64418;47.536;19.074;2023-03-05T11:01:20;12.40;;;5.40;;
75793;SDS011;64418;47.536;19.074;2023-03-05T11:03:54;11.25;;;6.70;;
75793;SDS011;64418;47.536;19.074;2023-03-05T11:06:28;11.00;;;6.03;;
75793;SDS011;64418;47.536;19.074;2023-03-05T11:09:12;17.48;;;6.60;;
75793;SDS011;64418;47.536;19.074;2023-03-05T11:11:41;12.57;;;5.55;;
75793;SDS011;64418;47.536;19.074;2023-03-05T11:14:09;10.07;;;5.20;;
75793;SDS011;64418;47.536;19.074;2023-03-05T11:16:49;10.02;;;5.70;;
75793;SDS011;64418;47.536;19.074;2023-03-05T11:19:17;11.55;;;6.10;;
75793;SDS011;64418;47.536;19.074;2023-03-05T11:21:45;12.65;;;6.78;;
75793;SDS011;64418;47.536;19.074;2023-03-05T11:24:28;12.40;;;6.53;;
75793;SDS011;64418;47.536;19.074;2023-03-05T11:26:55;12.93;;;6.53;;
75793;SDS011;64418;47.536;19.074;2023-03-05T11:29:23;13.90;;;6.53;;
75793;SDS011;64418;47.536;19.074;2023-03-05T11:31:51;11.38;;;6.05;;
75793;SDS011;64418;47.536;19.074;2023-03-05T11:34:23;11.23;;;5.57;;
75793;SDS011;64418;47.536;19.074;2023-03-05T11:37:01;13.43;;;5.90;;
75793;SDS011;64418;47.536;19.074;2023-03-05T11:39:29;11.90;;;6.22;;
75793;SDS011;64418;47.536;19.074;2023-03-05T11:41:57;12.70;;;5.75;;
75793;SDS011;64418;47.536;19.074;2023-03-05T11:44:26;13.98;;;6.20;;
75793;SDS011;64418;47.536;19.074;2023-03-05T11:46:57;11.83;;;6.10;;
75793;SDS011;64418;47.536;19.074;2023-03-05T11:49:49;8.88;;;4.75;;
75793;SDS011;64418;47.536;19.074;2023-03-05T11:52:20;13.15;;;6.82;;
75793;SDS011;64418;47.536;19.074;2023-03-05T11:54:55;11.12;;;6.00;;
75793;SDS011;64418;47.536;19.074;2023-03-05T11:57:27;12.73;;;6.43;;
75793;SDS011;64418;47.536;19.074;2023-03-05T12:00:05;12.30;;;7.00;;
75793;SDS011;64418;47.536;19.074;2023-03-05T12:02:32;10.63;;;6.53;;
75793;SDS011;64418;47.536;19.074;2023-03-05T12:05:00;12.65;;;6.25;;
75793;SDS011;64418;47.536;19.074;2023-03-05T12:07:29;12.43;;;6.85;;
75793;SDS011;64418;47.536;19.074;2023-03-05T12:10:03;12.43;;;6.95;;
75793;SDS011;64418;47.536;19.074;2023-03-05T12:12:34;13.03;;;7.03;;
75793;SDS011;64418;47.536;19.074;2023-03-05T12:15:17;12.32;;;6.22;;
75793;SDS011;64418;47.536;19.074;2023-03-05T12:17:54;11.50;;;6.30;;
75793;SDS011;64418;47.536;19.074;2023-03-05T12:20:54;10.93;;;6.85;;
75793;SDS011;64418;47.536;19.074;2023-03-05T12:23:52;11.15;;;5.78;;
75793;SDS011;64418;47.536;19.074;2023-03-05T12:29:26;9.80;;;5.25;;
75793;SDS011;64418;47.536;19.074;2023-03-05T12:31:55;11.00;;;5.40;;
75793;SDS011;64418;47.536;19.074;2023-03-05T12:34:34;10.38;;;5.40;;
75793;SDS011;64418;47.536;19.074;2023-03-05T12:37:02;8.98;;;5.40;;
75793;SDS011;64418;47.536;19.074;2023-03-05T12:39:45;7.27;;;3.53;;
75793;SDS011;64418;47.536;19.074;2023-03-05T12:45:22;9.43;;;4.68;;
75793;SDS011;64418;47.536;19.074;2023-03-05T12:50:56;10.15;;;5.50;;
75793;SDS011;64418;47.536;19.074;2023-03-05T12:53:24;8.30;;;4.60;;
75793;SDS011;64418;47.536;19.074;2023-03-05T12:55:53;7.65;;;4.50;;
75793;SDS011;64418;47.536;19.074;2023-03-05T12:58:25;8.10;;;4.30;;
75793;SDS011;64418;47.536;19.074;2023-03-05T13:01:01;6.95;;;4.35;;
75793;SDS011;64418;47.536;19.074;2023-03-05T13:03:32;6.40;;;4.03;;
75793;SDS011;64418;47.536;19.074;2023-03-05T13:06:00;12.07;;;5.13;;
75793;SDS011;64418;47.536;19.074;2023-03-05T13:08:29;7.32;;;4.37;;
75793;SDS011;64418;47.536;19.074;2023-03-05T13:10:56;7.18;;;4.03;;
75793;SDS011;64418;47.536;19.074;2023-03-05T13:13:26;7.62;;;4.90;;
75793;SDS011;64418;47.536;19.074;2023-03-05T13:15:54;11.48;;;4.10;;
75793;SDS011;64418;47.536;19.074;2023-03-05T13:18:22;8.33;;;4.33;;
75793;SDS011;64418;47.536;19.074;2023-03-05T13:20:59;7.30;;;3.73;;
75793;SDS011;64418;47.536;19.074;2023-03-05T13:23:26;7.53;;;4.28;;
75793;SDS011;64418;47.536;19.074;2023-03-05T13:25:55;9.40;;;4.82;;
75793;SDS011;64418;47.536;19.074;2023-03-05T13:28:23;8.32;;;4.50;;
75793;SDS011;64418;47.536;19.074;2023-03-05T13:30:49;9.13;;;4.30;;
75793;SDS011;64418;47.536;19.074;2023-03-05T13:33:16;9.93;;;4.70;;
75793;SDS011;64418;47.536;19.074;2023-03-05T13:35:46;6.90;;;4.07;;
75793;SDS011;64418;47.536;19.074;2023-03-05T13:38:21;9.88;;;4.75;;
75793;SDS011;64418;47.536;19.074;2023-03-05T13:41:17;9.15;;;4.45;;
75793;SDS011;64418;47.536;19.074;2023-03-05T13:43:45;7.35;;;4.28;;
75793;SDS011;64418;47.536;19.074;2023-03-05T13:46:12;6.90;;;3.80;;
75793;SDS011;64418;47.536;19.074;2023-03-05T13:48:46;9.57;;;4.12;;
75793;SDS011;64418;47.536;19.074;2023-03-05T13:51:12;9.95;;;3.92;;
75793;SDS011;64418;47.536;19.074;2023-03-05T13:53:37;8.67;;;4.27;;
75793;SDS011;64418;47.536;19.074;2023-03-05T13:56:06;8.10;;;3.50;;
75793;SDS011;64418;47.536;19.074;2023-03-05T13:58:41;7.22;;;3.35;;
75793;SDS011;64418;47.536;19.074;2023-03-05T14:01:11;8.75;;;4.15;;
75793;SDS011;64418;47.536;19.074;2023-03-05T14:03:38;6.05;;;3.30;;
75793;SDS011;64418;47.536;19.074;2023-03-05T14:06:05;7.13;;;4.20;;
75793;SDS011;64418;47.536;19.074;2023-03-05T14:08:34;7.72;;;3.97;;
75793;SDS011;64418;47.536;19.074;2023-03-05T14:11:11;9.45;;;4.40;;
75793;SDS011;64418;47.536;19.074;2023-03-05T14:13:39;6.78;;;3.22;;
75793;SDS011;64418;47.536;19.074;2023-03-05T14:16:06;5.87;;;3.60;;
75793;SDS011;64418;47.536;19.074;2023-03-05T14:18:33;6.85;;;2.90;;
75793;SDS011;64418;47.536;19.074;2023-03-05T14:21:01;7.85;;;4.07;;
75793;SDS011;64418;47.536;19.074;2023-03-05T14:23:33;7.20;;;4.10;;
75793;SDS011;64418;47.536;19.074;2023-03-05T14:29:12;7.37;;;4.10;;
75793;SDS011;64418;47.536;19.074;2023-03-05T14:31:44;7.15;;;3.22;;
75793;SDS011;64418;47.536;19.074;2023-03-05T14:34:20;7.03;;;3.90;;
75793;SDS011;64418;47.536;19.074;2023-03-05T14:36:49;8.40;;;3.97;;
75793;SDS011;64418;47.536;19.074;2023-03-05T14:39:24;6.93;;;4.10;;
75793;SDS011;64418;47.536;19.074;2023-03-05T14:41:54;5.30;;;2.90;;
75793;SDS011;64418;47.536;19.074;2023-03-05T14:44:19;6.80;;;3.43;;
75793;SDS011;64418;47.536;19.074;2023-03-05T14:46:47;7.65;;;4.10;;